sensor_id;sensor_type;location;lat;lon;timestamp;noise_LAeq;noise_LA_min;noise_LA_max;noise_LA01;noise_LA95
72028;Laerm;59781;52.090;5.030;2023-10-31T00:01:51;58.84;47.54;90.42;;
72028;Laerm;59781;52.090;5.030;2023-10-31T00:04:17;55.50;49.13;80.81;;
72028;Laerm;59781;52.090;5.030;2023-10-31T00:06:43;52.21;43.59;77.05;;
72028;Laerm;59781;52.090;5.030;2023-10-31T00:09:10;45.47;40.23;64.05;;
72028;Laerm;59781;52.090;5.030;2023-10-31T00:11:41;44.72;38.58;58.21;;
72028;Laerm;59781;52.090;5.030;2023-10-31T00:14:08;41.32;38.26;52.43;;
72028;Laerm;59781;52.090;5.030;2023-10-31T00:16:34;43.26;38.34;55.75;;
72028;Laerm;59781;52.090;5.030;2023-10-31T00:18:59;43.02;39.19;60.72;;
72028;Laerm;59781;52.090;5.030;2023-10-31T00:21:25;43.81;39.62;65.36;;
72028;Laerm;59781;52.090;5.030;2023-10-31T00:23:51;42.58;38.40;68.92;;
72028;Laerm;59781;52.090;5.030;2023-10-31T00:26:17;44.28;38.76;68.67;;
72028;Laerm;59781;52.090;5.030;2023-10-31T00:28:48;49.07;42.12;71.01;;
72028;Laerm;59781;52.090;5.030;2023-10-31T00:31:14;53.23;43.62;82.32;;
72028;Laerm;59781;52.090;5.030;2023-10-31T00:33:40;48.66;41.01;74.64;;
72028;Laerm;59781;52.090;5.030;2023-10-31T00:36:07;45.76;39.69;71.48;;
72028;Laerm;59781;52.090;5.030;2023-10-31T00:38:33;42.72;39.43;62.66;;
72028;Laerm;59781;52.090;5.030;2023-10-31T00:40:59;40.78;38.15;57.30;;
72028;Laerm;59781;52.090;5.030;2023-10-31T00:43:25;42.03;38.10;56.75;;
72028;Laerm;59781;52.090;5.030;2023-10-31T00:45:51;43.94;38.00;55.77;;
72028;Laerm;59781;52.090;5.030;2023-10-31T00:48:17;40.90;38.29;52.46;;
72028;Laerm;59781;52.090;5.030;2023-10-31T00:50:43;41.63;38.57;53.56;;
72028;Laerm;59781;52.090;5.030;2023-10-31T00:53:10;41.70;38.10;51.71;;
72028;Laerm;59781;52.090;5.030;2023-10-31T00:55:36;42.37;38.26;63.07;;
72028;Laerm;59781;52.090;5.030;2023-10-31T00:58:03;42.39;38.93;53.77;;
72028;Laerm;59781;52.090;5.030;2023-10-31T01:00:28;42.01;37.56;48.78;;
72028;Laerm;59781;52.090;5.030;2023-10-31T01:02:55;41.15;38.24;51.97;;
72028;Laerm;59781;52.090;5.030;2023-10-31T01:05:22;40.87;37.81;51.02;;
72028;Laerm;59781;52.090;5.030;2023-10-31T01:07:48;40.47;37.75;48.74;;
72028;Laerm;59781;52.090;5.030;2023-10-31T01:10:14;42.65;38.05;52.80;;
72028;Laerm;59781;52.090;5.030;2023-10-31T01:12:39;42.11;38.33;65.96;;
72028;Laerm;59781;52.090;5.030;2023-10-31T01:15:06;41.67;38.50;55.20;;
72028;Laerm;59781;52.090;5.030;2023-10-31T01:17:32;41.45;38.17;62.30;;
72028;Laerm;59781;52.090;5.030;2023-10-31T01:19:58;41.48;38.40;53.78;;
72028;Laerm;59781;52.090;5.030;2023-10-31T01:22:24;41.60;37.71;48.23;;
72028;Laerm;59781;52.090;5.030;2023-10-31T01:24:49;41.04;37.99;50.66;;
72028;Laerm;59781;52.090;5.030;2023-10-31T01:27:15;41.16;38.24;52.93;;
72028;Laerm;59781;52.090;5.030;2023-10-31T01:29:41;40.72;38.23;49.21;;
72028;Laerm;59781;52.090;5.030;2023-10-31T01:32:07;41.31;38.51;57.16;;
72028;Laerm;59781;52.090;5.030;2023-10-31T01:34:33;42.27;38.55;58.94;;
72028;Laerm;59781;52.090;5.030;2023-10-31T01:36:58;42.58;38.54;58.64;;
72028;Laerm;59781;52.090;5.030;2023-10-31T01:39:24;41.87;38.48;62.66;;
72028;Laerm;59781;52.090;5.030;2023-10-31T01:41:50;46.79;39.77;73.60;;
72028;Laerm;59781;52.090;5.030;2023-10-31T01:44:15;48.33;40.19;77.34;;
72028;Laerm;59781;52.090;5.030;2023-10-31T01:46:41;43.96;39.11;64.21;;
72028;Laerm;59781;52.090;5.030;2023-10-31T01:49:08;42.85;38.97;62.70;;
72028;Laerm;59781;52.090;5.030;2023-10-31T01:51:33;44.50;39.41;69.13;;
72028;Laerm;59781;52.090;5.030;2023-10-31T01:53:59;42.45;39.18;60.30;;
72028;Laerm;59781;52.090;5.030;2023-10-31T01:56:26;44.24;40.26;66.55;;
72028;Laerm;59781;52.090;5.030;2023-10-31T01:58:53;44.71;40.66;63.65;;
72028;Laerm;59781;52.090;5.030;2023-10-31T02:01:20;43.48;39.86;60.43;;
72028;Laerm;59781;52.090;5.030;2023-10-31T02:03:45;44.78;39.68;73.86;;
72028;Laerm;59781;52.090;5.030;2023-10-31T02:06:11;46.95;41.33;71.40;;
72028;Laerm;59781;52.090;5.030;2023-10-31T02:08:37;48.93;42.90;72.43;;
72028;Laerm;59781;52.090;5.030;2023-10-31T02:11:03;49.82;42.83;76.67;;
72028;Laerm;59781;52.090;5.030;2023-10-31T02:13:31;48.54;42.89;70.78;;
72028;Laerm;59781;52.090;5.030;2023-10-31T02:15:56;48.91;42.56;77.02;;
72028;Laerm;59781;52.090;5.030;2023-10-31T02:18:22;50.49;42.50;76.21;;
72028;Laerm;59781;52.090;5.030;2023-10-31T02:20:48;50.39;43.65;76.07;;
72028;Laerm;59781;52.090;5.030;2023-10-31T02:23:17;49.76;43.29;72.84;;
72028;Laerm;59781;52.090;5.030;2023-10-31T02:25:42;51.50;43.30;77.34;;
72028;Laerm;59781;52.090;5.030;2023-10-31T02:28:08;53.65;46.01;77.19;;
72028;Laerm;59781;52.090;5.030;2023-10-31T02:30:34;56.77;47.71;84.05;;
72028;Laerm;59781;52.090;5.030;2023-10-31T02:33:02;51.20;43.55;72.22;;
72028;Laerm;59781;52.090;5.030;2023-10-31T02:35:28;46.25;41.03;72.29;;
72028;Laerm;59781;52.090;5.030;2023-10-31T02:37:54;47.15;41.99;68.94;;
72028;Laerm;59781;52.090;5.030;2023-10-31T02:40:20;49.46;43.07;73.73;;
72028;Laerm;59781;52.090;5.030;2023-10-31T02:42:46;48.29;42.98;73.31;;
72028;Laerm;59781;52.090;5.030;2023-10-31T02:45:12;50.38;44.33;76.15;;
72028;Laerm;59781;52.090;5.030;2023-10-31T02:47:38;49.45;44.48;75.78;;
72028;Laerm;59781;52.090;5.030;2023-10-31T02:50:04;49.05;43.50;73.93;;
72028;Laerm;59781;52.090;5.030;2023-10-31T02:52:30;50.31;44.13;76.93;;
72028;Laerm;59781;52.090;5.030;2023-10-31T02:54:56;50.34;44.00;75.77;;
72028;Laerm;59781;52.090;5.030;2023-10-31T02:57:22;49.10;43.91;73.70;;
72028;Laerm;59781;52.090;5.030;2023-10-31T02:59:48;46.79;42.17;74.01;;
72028;Laerm;59781;52.090;5.030;2023-10-31T03:02:14;47.93;43.63;75.41;;
72028;Laerm;59781;52.090;5.030;2023-10-31T03:04:40;49.37;44.39;75.74;;
72028;Laerm;59781;52.090;5.030;2023-10-31T03:07:06;51.20;44.70;76.56;;
72028;Laerm;59781;52.090;5.030;2023-10-31T03:09:32;53.35;46.97;79.88;;
72028;Laerm;59781;52.090;5.030;2023-10-31T03:11:58;53.24;46.57;78.01;;
72028;Laerm;59781;52.090;5.030;2023-10-31T03:14:24;52.23;46.64;75.07;;
72028;Laerm;59781;52.090;5.030;2023-10-31T03:16:50;47.65;42.28;68.39;;
72028;Laerm;59781;52.090;5.030;2023-10-31T03:19:16;45.76;41.38;68.50;;
72028;Laerm;59781;52.090;5.030;2023-10-31T03:21:42;45.94;40.45;76.30;;
72028;Laerm;59781;52.090;5.030;2023-10-31T03:24:08;44.14;41.06;58.28;;
72028;Laerm;59781;52.090;5.030;2023-10-31T03:26:34;44.84;40.13;73.41;;
72028;Laerm;59781;52.090;5.030;2023-10-31T03:28:59;43.04;39.91;55.20;;
72028;Laerm;59781;52.090;5.030;2023-10-31T03:31:25;41.89;39.19;53.69;;
72028;Laerm;59781;52.090;5.030;2023-10-31T03:33:51;44.55;39.28;75.40;;
72028;Laerm;59781;52.090;5.030;2023-10-31T03:36:17;42.28;39.01;52.17;;
72028;Laerm;59781;52.090;5.030;2023-10-31T03:38:43;42.86;39.34;58.43;;
72028;Laerm;59781;52.090;5.030;2023-10-31T03:41:09;44.39;40.48;71.88;;
72028;Laerm;59781;52.090;5.030;2023-10-31T03:43:35;43.67;40.17;66.08;;
72028;Laerm;59781;52.090;5.030;2023-10-31T03:46:01;42.82;40.00;59.83;;
72028;Laerm;59781;52.090;5.030;2023-10-31T03:48:27;43.98;40.75;66.00;;
72028;Laerm;59781;52.090;5.030;2023-10-31T03:50:52;43.43;40.10;60.87;;
72028;Laerm;59781;52.090;5.030;2023-10-31T03:53:18;43.78;40.06;63.94;;
72028;Laerm;59781;52.090;5.030;2023-10-31T03:55:44;44.94;41.65;66.43;;
72028;Laerm;59781;52.090;5.030;2023-10-31T03:58:10;45.74;41.85;72.04;;
72028;Laerm;59781;52.090;5.030;2023-10-31T04:00:39;46.79;42.24;71.65;;
72028;Laerm;59781;52.090;5.030;2023-10-31T04:03:04;47.12;42.89;67.06;;
72028;Laerm;59781;52.090;5.030;2023-10-31T04:05:30;48.35;43.77;71.34;;
72028;Laerm;59781;52.090;5.030;2023-10-31T04:07:56;48.72;43.51;75.89;;
72028;Laerm;59781;52.090;5.030;2023-10-31T04:10:22;51.90;44.15;81.19;;
72028;Laerm;59781;52.090;5.030;2023-10-31T04:12:48;50.57;44.53;72.64;;
72028;Laerm;59781;52.090;5.030;2023-10-31T04:15:13;49.54;43.82;72.22;;
72028;Laerm;59781;52.090;5.030;2023-10-31T04:17:40;50.08;44.21;77.39;;
72028;Laerm;59781;52.090;5.030;2023-10-31T04:20:06;48.93;43.71;76.48;;
72028;Laerm;59781;52.090;5.030;2023-10-31T04:22:32;48.38;43.57;69.68;;
72028;Laerm;59781;52.090;5.030;2023-10-31T04:24:58;48.21;43.32;71.69;;
72028;Laerm;59781;52.090;5.030;2023-10-31T04:27:24;47.24;43.29;68.52;;
72028;Laerm;59781;52.090;5.030;2023-10-31T04:29:49;47.72;43.21;71.14;;
72028;Laerm;59781;52.090;5.030;2023-10-31T04:32:15;49.34;44.46;75.19;;
72028;Laerm;59781;52.090;5.030;2023-10-31T04:34:41;49.19;44.35;72.96;;
72028;Laerm;59781;52.090;5.030;2023-10-31T04:37:07;48.75;43.59;72.40;;
72028;Laerm;59781;52.090;5.030;2023-10-31T04:39:32;48.30;43.29;73.46;;
72028;Laerm;59781;52.090;5.030;2023-10-31T04:41:58;53.61;43.22;71.58;;
72028;Laerm;59781;52.090;5.030;2023-10-31T04:44:24;48.41;43.15;69.82;;
72028;Laerm;59781;52.090;5.030;2023-10-31T04:46:50;49.81;44.46;75.98;;
72028;Laerm;59781;52.090;5.030;2023-10-31T04:49:15;48.05;44.07;66.51;;
72028;Laerm;59781;52.090;5.030;2023-10-31T04:51:41;47.42;43.91;64.06;;
72028;Laerm;59781;52.090;5.030;2023-10-31T04:54:07;47.96;43.48;74.31;;
72028;Laerm;59781;52.090;5.030;2023-10-31T04:56:33;48.15;43.80;72.15;;
72028;Laerm;59781;52.090;5.030;2023-10-31T04:58:59;48.61;44.85;65.67;;
72028;Laerm;59781;52.090;5.030;2023-10-31T05:01:25;48.86;44.66;67.26;;
72028;Laerm;59781;52.090;5.030;2023-10-31T05:03:51;49.60;45.21;70.53;;
72028;Laerm;59781;52.090;5.030;2023-10-31T05:06:22;49.34;44.63;70.72;;
72028;Laerm;59781;52.090;5.030;2023-10-31T05:08:49;48.14;44.25;65.47;;
72028;Laerm;59781;52.090;5.030;2023-10-31T05:11:18;48.55;44.71;68.22;;
72028;Laerm;59781;52.090;5.030;2023-10-31T05:13:46;50.68;45.81;75.18;;
72028;Laerm;59781;52.090;5.030;2023-10-31T05:16:12;49.77;45.95;74.21;;
72028;Laerm;59781;52.090;5.030;2023-10-31T05:18:38;52.42;46.44;76.62;;
72028;Laerm;59781;52.090;5.030;2023-10-31T05:21:05;52.75;45.96;83.03;;
72028;Laerm;59781;52.090;5.030;2023-10-31T05:23:30;48.67;45.28;71.29;;
72028;Laerm;59781;52.090;5.030;2023-10-31T05:25:56;49.65;45.09;69.70;;
72028;Laerm;59781;52.090;5.030;2023-10-31T05:28:22;50.56;46.38;74.25;;
72028;Laerm;59781;52.090;5.030;2023-10-31T05:30:49;49.94;45.65;69.29;;
72028;Laerm;59781;52.090;5.030;2023-10-31T05:33:16;48.83;45.43;67.07;;
72028;Laerm;59781;52.090;5.030;2023-10-31T05:35:42;49.16;45.96;71.16;;
72028;Laerm;59781;52.090;5.030;2023-10-31T05:38:08;48.27;44.71;62.40;;
72028;Laerm;59781;52.090;5.030;2023-10-31T05:40:34;48.97;44.99;73.82;;
72028;Laerm;59781;52.090;5.030;2023-10-31T05:43:03;51.15;46.89;66.79;;
72028;Laerm;59781;52.090;5.030;2023-10-31T05:45:30;49.90;45.97;74.32;;
72028;Laerm;59781;52.090;5.030;2023-10-31T05:47:56;50.15;46.31;69.24;;
72028;Laerm;59781;52.090;5.030;2023-10-31T05:50:22;52.64;47.27;78.13;;
72028;Laerm;59781;52.090;5.030;2023-10-31T05:52:48;49.99;45.85;68.10;;
72028;Laerm;59781;52.090;5.030;2023-10-31T05:55:13;49.80;46.15;65.71;;
72028;Laerm;59781;52.090;5.030;2023-10-31T05:57:39;49.54;45.93;70.21;;
72028;Laerm;59781;52.090;5.030;2023-10-31T06:00:07;50.58;46.58;64.72;;
72028;Laerm;59781;52.090;5.030;2023-10-31T06:02:37;50.77;46.41;73.85;;
72028;Laerm;59781;52.090;5.030;2023-10-31T06:05:04;49.54;46.68;60.20;;
72028;Laerm;59781;52.090;5.030;2023-10-31T06:07:29;50.02;47.11;55.91;;
72028;Laerm;59781;52.090;5.030;2023-10-31T06:09:55;50.42;45.66;65.75;;
72028;Laerm;59781;52.090;5.030;2023-10-31T06:12:21;49.50;45.30;54.83;;
72028;Laerm;59781;52.090;5.030;2023-10-31T06:14:47;49.56;46.30;58.54;;
72028;Laerm;59781;52.090;5.030;2023-10-31T06:17:13;49.92;45.60;63.94;;
72028;Laerm;59781;52.090;5.030;2023-10-31T06:19:38;49.21;45.95;68.87;;
72028;Laerm;59781;52.090;5.030;2023-10-31T06:22:11;48.67;45.51;54.50;;
72028;Laerm;59781;52.090;5.030;2023-10-31T06:24:37;49.19;45.58;53.81;;
72028;Laerm;59781;52.090;5.030;2023-10-31T06:27:03;48.50;45.63;57.71;;
72028;Laerm;59781;52.090;5.030;2023-10-31T06:29:28;48.48;44.58;69.50;;
72028;Laerm;59781;52.090;5.030;2023-10-31T06:31:54;48.78;44.39;71.09;;
72028;Laerm;59781;52.090;5.030;2023-10-31T06:34:20;48.36;44.45;59.68;;
72028;Laerm;59781;52.090;5.030;2023-10-31T06:36:46;49.33;44.29;71.16;;
72028;Laerm;59781;52.090;5.030;2023-10-31T06:39:11;48.26;44.60;57.37;;
72028;Laerm;59781;52.090;5.030;2023-10-31T06:41:37;49.32;45.01;76.12;;
72028;Laerm;59781;52.090;5.030;2023-10-31T06:44:03;47.90;44.46;57.69;;
72028;Laerm;59781;52.090;5.030;2023-10-31T06:46:29;47.67;44.30;53.93;;
72028;Laerm;59781;52.090;5.030;2023-10-31T06:48:55;48.31;44.45;55.58;;
72028;Laerm;59781;52.090;5.030;2023-10-31T06:51:20;47.30;44.33;51.72;;
72028;Laerm;59781;52.090;5.030;2023-10-31T06:53:46;48.18;44.51;57.34;;
72028;Laerm;59781;52.090;5.030;2023-10-31T06:56:12;50.19;44.48;61.36;;
72028;Laerm;59781;52.090;5.030;2023-10-31T06:58:37;48.76;45.96;61.02;;
72028;Laerm;59781;52.090;5.030;2023-10-31T07:01:03;48.77;45.15;59.65;;
72028;Laerm;59781;52.090;5.030;2023-10-31T07:06:56;48.41;44.56;58.50;;
72028;Laerm;59781;52.090;5.030;2023-10-31T07:09:26;48.76;45.03;64.66;;
72028;Laerm;59781;52.090;5.030;2023-10-31T07:11:53;48.28;44.81;51.59;;
72028;Laerm;59781;52.090;5.030;2023-10-31T07:14:19;49.11;45.14;52.82;;
72028;Laerm;59781;52.090;5.030;2023-10-31T07:16:44;48.80;45.89;55.38;;
72028;Laerm;59781;52.090;5.030;2023-10-31T07:19:11;48.47;45.16;51.74;;
72028;Laerm;59781;52.090;5.030;2023-10-31T07:21:37;49.58;45.70;53.05;;
72028;Laerm;59781;52.090;5.030;2023-10-31T07:24:03;50.05;46.32;57.17;;
72028;Laerm;59781;52.090;5.030;2023-10-31T07:26:29;49.16;44.50;52.86;;
72028;Laerm;59781;52.090;5.030;2023-10-31T07:28:54;49.63;45.79;52.71;;
72028;Laerm;59781;52.090;5.030;2023-10-31T07:31:20;49.24;45.61;61.25;;
72028;Laerm;59781;52.090;5.030;2023-10-31T07:33:47;49.10;45.50;52.56;;
72028;Laerm;59781;52.090;5.030;2023-10-31T07:36:13;49.19;45.47;53.91;;
72028;Laerm;59781;52.090;5.030;2023-10-31T07:38:39;49.48;46.38;52.64;;
72028;Laerm;59781;52.090;5.030;2023-10-31T07:41:04;49.36;45.14;55.55;;
72028;Laerm;59781;52.090;5.030;2023-10-31T07:43:30;50.23;46.54;64.13;;
72028;Laerm;59781;52.090;5.030;2023-10-31T07:45:56;49.94;45.48;57.78;;
72028;Laerm;59781;52.090;5.030;2023-10-31T07:48:21;49.30;46.08;52.81;;
72028;Laerm;59781;52.090;5.030;2023-10-31T07:50:47;49.81;46.09;68.52;;
72028;Laerm;59781;52.090;5.030;2023-10-31T07:53:13;49.81;46.17;52.83;;
72028;Laerm;59781;52.090;5.030;2023-10-31T07:55:39;50.11;46.34;57.84;;
72028;Laerm;59781;52.090;5.030;2023-10-31T07:58:04;50.19;45.79;62.71;;
72028;Laerm;59781;52.090;5.030;2023-10-31T08:00:30;49.53;45.53;57.77;;
72028;Laerm;59781;52.090;5.030;2023-10-31T08:02:56;47.92;44.17;62.69;;
72028;Laerm;59781;52.090;5.030;2023-10-31T08:05:22;47.63;44.06;55.45;;
72028;Laerm;59781;52.090;5.030;2023-10-31T08:07:48;48.25;44.48;51.74;;
72028;Laerm;59781;52.090;5.030;2023-10-31T08:10:14;49.04;45.55;56.62;;
72028;Laerm;59781;52.090;5.030;2023-10-31T08:12:39;49.61;45.38;58.21;;
72028;Laerm;59781;52.090;5.030;2023-10-31T08:15:05;49.23;45.51;53.15;;
72028;Laerm;59781;52.090;5.030;2023-10-31T08:17:31;50.18;46.15;61.05;;
72028;Laerm;59781;52.090;5.030;2023-10-31T08:20:00;50.06;46.60;55.18;;
72028;Laerm;59781;52.090;5.030;2023-10-31T08:22:26;50.18;46.25;58.03;;
72028;Laerm;59781;52.090;5.030;2023-10-31T08:24:51;49.07;45.81;52.22;;
72028;Laerm;59781;52.090;5.030;2023-10-31T08:27:17;49.57;46.35;53.23;;
72028;Laerm;59781;52.090;5.030;2023-10-31T08:29:43;50.30;46.35;57.62;;
72028;Laerm;59781;52.090;5.030;2023-10-31T08:32:08;49.96;46.98;53.49;;
72028;Laerm;59781;52.090;5.030;2023-10-31T08:34:34;50.63;47.09;60.83;;
72028;Laerm;59781;52.090;5.030;2023-10-31T08:37:00;50.18;45.93;56.27;;
72028;Laerm;59781;52.090;5.030;2023-10-31T08:39:26;47.37;43.88;53.10;;
72028;Laerm;59781;52.090;5.030;2023-10-31T08:41:57;47.96;44.68;53.44;;
72028;Laerm;59781;52.090;5.030;2023-10-31T08:44:23;48.48;45.00;57.99;;
72028;Laerm;59781;52.090;5.030;2023-10-31T08:46:49;49.18;45.64;67.97;;
72028;Laerm;59781;52.090;5.030;2023-10-31T08:49:16;49.70;45.92;58.94;;
72028;Laerm;59781;52.090;5.030;2023-10-31T08:51:43;48.11;44.53;53.80;;
72028;Laerm;59781;52.090;5.030;2023-10-31T08:54:10;46.95;43.76;60.97;;
72028;Laerm;59781;52.090;5.030;2023-10-31T08:56:36;47.23;44.13;55.19;;
72028;Laerm;59781;52.090;5.030;2023-10-31T08:59:02;47.70;43.49;53.90;;
72028;Laerm;59781;52.090;5.030;2023-10-31T09:01:28;48.00;44.54;56.23;;
72028;Laerm;59781;52.090;5.030;2023-10-31T09:03:56;46.60;42.99;51.49;;
72028;Laerm;59781;52.090;5.030;2023-10-31T09:06:24;47.08;43.21;58.18;;
72028;Laerm;59781;52.090;5.030;2023-10-31T09:08:50;48.12;43.51;64.81;;
72028;Laerm;59781;52.090;5.030;2023-10-31T09:11:16;49.29;42.87;68.12;;
72028;Laerm;59781;52.090;5.030;2023-10-31T09:13:42;46.52;43.15;50.88;;
72028;Laerm;59781;52.090;5.030;2023-10-31T09:16:08;46.14;42.70;55.64;;
72028;Laerm;59781;52.090;5.030;2023-10-31T09:18:33;46.37;41.61;56.54;;
72028;Laerm;59781;52.090;5.030;2023-10-31T09:21:00;47.88;42.33;57.46;;
72028;Laerm;59781;52.090;5.030;2023-10-31T09:23:25;48.62;41.96;64.18;;
72028;Laerm;59781;52.090;5.030;2023-10-31T09:25:51;48.42;43.44;58.60;;
72028;Laerm;59781;52.090;5.030;2023-10-31T09:28:17;46.27;42.54;53.53;;
72028;Laerm;59781;52.090;5.030;2023-10-31T09:30:43;45.02;41.48;56.20;;
72028;Laerm;59781;52.090;5.030;2023-10-31T09:33:09;46.32;42.17;55.54;;
72028;Laerm;59781;52.090;5.030;2023-10-31T09:35:35;46.16;42.58;52.44;;
72028;Laerm;59781;52.090;5.030;2023-10-31T09:38:00;45.73;41.81;54.84;;
72028;Laerm;59781;52.090;5.030;2023-10-31T09:40:26;46.45;42.16;52.26;;
72028;Laerm;59781;52.090;5.030;2023-10-31T09:42:52;46.66;43.00;56.52;;
72028;Laerm;59781;52.090;5.030;2023-10-31T09:45:18;46.11;42.52;62.06;;
72028;Laerm;59781;52.090;5.030;2023-10-31T09:47:44;46.47;43.30;54.09;;
72028;Laerm;59781;52.090;5.030;2023-10-31T09:50:11;47.31;43.05;55.01;;
72028;Laerm;59781;52.090;5.030;2023-10-31T09:52:37;46.90;43.19;53.69;;
72028;Laerm;59781;52.090;5.030;2023-10-31T09:55:03;45.66;42.89;57.40;;
72028;Laerm;59781;52.090;5.030;2023-10-31T09:57:30;46.52;43.41;50.45;;
72028;Laerm;59781;52.090;5.030;2023-10-31T09:59:56;46.85;43.89;51.27;;
72028;Laerm;59781;52.090;5.030;2023-10-31T10:02:22;47.43;42.98;55.58;;
72028;Laerm;59781;52.090;5.030;2023-10-31T10:04:49;47.61;41.99;57.60;;
72028;Laerm;59781;52.090;5.030;2023-10-31T10:07:18;46.90;43.44;52.23;;
72028;Laerm;59781;52.090;5.030;2023-10-31T10:09:45;51.56;43.06;66.91;;
72028;Laerm;59781;52.090;5.030;2023-10-31T10:12:16;44.22;40.71;49.93;;
72028;Laerm;59781;52.090;5.030;2023-10-31T10:14:45;52.18;41.34;66.40;;
72028;Laerm;59781;52.090;5.030;2023-10-31T10:17:17;45.40;40.36;62.63;;
72028;Laerm;59781;52.090;5.030;2023-10-31T10:19:43;44.65;41.24;51.35;;
72028;Laerm;59781;52.090;5.030;2023-10-31T10:22:09;44.22;40.93;50.12;;
72028;Laerm;59781;52.090;5.030;2023-10-31T10:24:39;44.48;40.00;58.14;;
72028;Laerm;59781;52.090;5.030;2023-10-31T10:27:05;43.63;39.56;56.67;;
72028;Laerm;59781;52.090;5.030;2023-10-31T10:29:31;45.76;41.34;55.39;;
72028;Laerm;59781;52.090;5.030;2023-10-31T10:31:57;44.94;40.60;54.04;;
72028;Laerm;59781;52.090;5.030;2023-10-31T10:34:24;44.56;40.29;50.08;;
72028;Laerm;59781;52.090;5.030;2023-10-31T10:36:50;44.54;40.34;52.08;;
72028;Laerm;59781;52.090;5.030;2023-10-31T10:39:22;46.25;40.54;54.81;;
72028;Laerm;59781;52.090;5.030;2023-10-31T10:41:56;43.94;39.69;56.79;;
72028;Laerm;59781;52.090;5.030;2023-10-31T10:44:35;44.65;39.81;58.80;;
72028;Laerm;59781;52.090;5.030;2023-10-31T10:47:06;44.03;39.83;54.35;;
72028;Laerm;59781;52.090;5.030;2023-10-31T10:49:37;44.07;40.17;48.87;;
72028;Laerm;59781;52.090;5.030;2023-10-31T10:55:06;44.41;41.27;50.05;;
72028;Laerm;59781;52.090;5.030;2023-10-31T10:57:52;47.16;40.91;59.11;;
72028;Laerm;59781;52.090;5.030;2023-10-31T11:00:24;45.71;41.34;52.27;;
72028;Laerm;59781;52.090;5.030;2023-10-31T11:02:53;45.18;40.90;57.92;;
72028;Laerm;59781;52.090;5.030;2023-10-31T11:05:20;48.22;42.46;59.51;;
72028;Laerm;59781;52.090;5.030;2023-10-31T11:07:47;46.85;42.76;60.12;;
72028;Laerm;59781;52.090;5.030;2023-10-31T11:10:14;47.91;42.13;55.27;;
72028;Laerm;59781;52.090;5.030;2023-10-31T11:12:41;46.38;41.70;54.95;;
72028;Laerm;59781;52.090;5.030;2023-10-31T11:15:14;47.30;41.29;59.76;;
72028;Laerm;59781;52.090;5.030;2023-10-31T11:17:44;45.22;40.99;55.78;;
72028;Laerm;59781;52.090;5.030;2023-10-31T11:20:14;45.11;41.49;64.57;;
72028;Laerm;59781;52.090;5.030;2023-10-31T11:22:45;55.43;42.03;88.97;;
72028;Laerm;59781;52.090;5.030;2023-10-31T11:25:19;45.54;42.11;58.78;;
72028;Laerm;59781;52.090;5.030;2023-10-31T11:27:53;47.97;41.69;59.88;;
72028;Laerm;59781;52.090;5.030;2023-10-31T11:32:53;45.54;41.71;56.95;;
72028;Laerm;59781;52.090;5.030;2023-10-31T11:35:22;45.19;41.72;51.63;;
72028;Laerm;59781;52.090;5.030;2023-10-31T11:38:10;44.67;41.46;54.16;;
72028;Laerm;59781;52.090;5.030;2023-10-31T11:40:59;45.80;42.32;53.74;;
72028;Laerm;59781;52.090;5.030;2023-10-31T11:43:26;46.87;41.85;59.27;;
72028;Laerm;59781;52.090;5.030;2023-10-31T11:46:00;45.71;40.95;54.89;;
72028;Laerm;59781;52.090;5.030;2023-10-31T11:48:48;44.88;41.09;54.93;;
72028;Laerm;59781;52.090;5.030;2023-10-31T11:51:15;46.59;42.42;63.05;;
72028;Laerm;59781;52.090;5.030;2023-10-31T11:53:44;46.90;43.32;67.39;;
72028;Laerm;59781;52.090;5.030;2023-10-31T11:56:19;48.14;42.74;76.53;;
72028;Laerm;59781;52.090;5.030;2023-10-31T11:58:58;48.58;41.18;65.63;;
72028;Laerm;59781;52.090;5.030;2023-10-31T12:01:24;45.63;40.95;61.44;;
72028;Laerm;59781;52.090;5.030;2023-10-31T12:03:50;45.51;42.37;60.31;;
72028;Laerm;59781;52.090;5.030;2023-10-31T12:06:17;52.31;42.03;83.11;;
72028;Laerm;59781;52.090;5.030;2023-10-31T12:08:46;44.64;40.94;51.87;;
72028;Laerm;59781;52.090;5.030;2023-10-31T12:11:21;46.05;41.63;56.29;;
72028;Laerm;59781;52.090;5.030;2023-10-31T12:14:02;44.49;40.60;55.22;;
72028;Laerm;59781;52.090;5.030;2023-10-31T12:16:33;46.55;42.14;66.94;;
72028;Laerm;59781;52.090;5.030;2023-10-31T12:19:08;45.79;41.89;53.37;;
72028;Laerm;59781;52.090;5.030;2023-10-31T12:21:45;45.89;41.66;57.58;;
72028;Laerm;59781;52.090;5.030;2023-10-31T12:24:15;48.04;43.12;62.91;;
72028;Laerm;59781;52.090;5.030;2023-10-31T12:26:43;45.24;41.28;54.97;;
72028;Laerm;59781;52.090;5.030;2023-10-31T12:29:14;45.86;41.94;60.01;;
72028;Laerm;59781;52.090;5.030;2023-10-31T12:31:50;46.15;41.06;57.80;;
72028;Laerm;59781;52.090;5.030;2023-10-31T12:34:21;45.99;41.99;57.00;;
72028;Laerm;59781;52.090;5.030;2023-10-31T12:36:53;45.98;41.81;58.86;;
72028;Laerm;59781;52.090;5.030;2023-10-31T12:39:25;45.58;41.87;50.86;;
72028;Laerm;59781;52.090;5.030;2023-10-31T12:41:52;45.44;41.80;51.52;;
72028;Laerm;59781;52.090;5.030;2023-10-31T12:44:24;46.18;42.11;62.17;;
72028;Laerm;59781;52.090;5.030;2023-10-31T12:46:51;47.00;41.43;66.84;;
72028;Laerm;59781;52.090;5.030;2023-10-31T12:49:20;46.33;41.39;51.46;;
72028;Laerm;59781;52.090;5.030;2023-10-31T12:52:03;45.79;41.66;60.49;;
72028;Laerm;59781;52.090;5.030;2023-10-31T12:54:37;45.29;41.96;50.50;;
72028;Laerm;59781;52.090;5.030;2023-10-31T12:57:09;45.64;41.41;51.45;;
72028;Laerm;59781;52.090;5.030;2023-10-31T12:59:37;45.81;41.38;55.95;;
72028;Laerm;59781;52.090;5.030;2023-10-31T13:02:04;45.92;42.18;61.63;;
72028;Laerm;59781;52.090;5.030;2023-10-31T13:04:33;47.84;42.38;59.05;;
72028;Laerm;59781;52.090;5.030;2023-10-31T13:07:01;45.82;42.09;59.47;;
72028;Laerm;59781;52.090;5.030;2023-10-31T13:09:36;46.38;41.58;54.88;;
72028;Laerm;59781;52.090;5.030;2023-10-31T13:12:06;47.07;42.28;66.13;;
72028;Laerm;59781;52.090;5.030;2023-10-31T13:14:33;49.32;42.77;78.98;;
72028;Laerm;59781;52.090;5.030;2023-10-31T13:16:59;47.87;42.52;58.65;;
72028;Laerm;59781;52.090;5.030;2023-10-31T13:19:26;46.15;42.50;52.46;;
72028;Laerm;59781;52.090;5.030;2023-10-31T13:21:52;46.85;41.99;64.17;;
72028;Laerm;59781;52.090;5.030;2023-10-31T13:24:17;46.54;41.79;65.68;;
72028;Laerm;59781;52.090;5.030;2023-10-31T13:26:44;51.51;41.97;66.13;;
72028;Laerm;59781;52.090;5.030;2023-10-31T13:29:11;48.92;41.92;76.83;;
72028;Laerm;59781;52.090;5.030;2023-10-31T13:31:39;46.39;42.34;62.41;;
72028;Laerm;59781;52.090;5.030;2023-10-31T13:34:06;49.22;42.19;64.61;;
72028;Laerm;59781;52.090;5.030;2023-10-31T13:36:31;47.98;42.16;60.17;;
72028;Laerm;59781;52.090;5.030;2023-10-31T13:38:57;50.15;42.18;62.84;;
72028;Laerm;59781;52.090;5.030;2023-10-31T13:41:23;48.02;42.35;60.87;;
72028;Laerm;59781;52.090;5.030;2023-10-31T13:43:49;47.27;41.77;55.19;;
72028;Laerm;59781;52.090;5.030;2023-10-31T13:46:14;48.51;42.90;62.32;;
72028;Laerm;59781;52.090;5.030;2023-10-31T13:48:40;46.20;42.28;60.01;;
72028;Laerm;59781;52.090;5.030;2023-10-31T13:51:07;46.05;42.90;54.88;;
72028;Laerm;59781;52.090;5.030;2023-10-31T13:53:33;46.26;42.62;55.77;;